deformed-offering

Nearby METAR Reports

 

KNUQ - Moffett Nas/Mtn, California, USA
Distance from station: N 9mi, 14km
Updated: Thu, 16-Aug-2018 5:18am PDT
Mostly Cloudy
Mostly Cloudy
 Wind from calm
Wind: Calm
Temperature: 63°F , 17°C
Dew Point: 57°F , 14°C
Humidity: 83%
Barometer: 30.01 inHg , 1016.3 hPa
Clouds: Mostly Cloudy
Visibility: 10 miles , 16 km
Cloud details: Mostly Cloudy 1900 ft
2018/08/16 12:18 KNUQ 161218Z AUTO 00000KT 10SM BKN019 17/14 A3001 RMK AO2 T01670139
KSJC - San Jose, California, USA
Distance from station: NE 9mi, 14km
Updated: Thu, 16-Aug-2018 4:53am PDT
Overcast
Overcast
 Wind from N
Wind: N 7 mph , 11 km/h
Temperature: 63°F , 17°C
Dew Point: 57°F , 14°C
Humidity: 83%
Barometer: 30.00 inHg , 1015.9 hPa
Clouds: Overcast
Visibility: 10 miles , 16 km
Cloud details: Overcast 1500 ft
2018/08/16 11:53 KSJC 161153Z AUTO 35006KT 10SM OVC015 17/14 A3000 RMK AO2 SLP157 T01670139 10178 20161 53003
 
KRHV - San Jose/Reid, California, USA
Distance from station: ENE 12mi, 19km
Updated: Wed, 15-Aug-2018 9:47pm PDT
NOT Current
Clear
Clear
 Wind from NNW
Wind: NNW 7 mph , 11 km/h
Temperature: 64°F , 18°C
Dew Point: 57°F , 14°C
Humidity: 78%
Barometer: 29.94 inHg , 1013.9 hPa
Clouds: Clear
Visibility: 10 miles , 16 km
2018/08/16 04:47 KRHV 160447Z 33006KT 10SM SKC 18/14 A2994
KPAO - Palo Alto, California, USA
Distance from station: NNW 14mi, 23km
Updated: Wed, 15-Aug-2018 8:47pm PDT
NOT Current
Clear
Clear
 Wind from WNW
Wind: WNW 10 mph , 17 km/h
Temperature: 64°F , 18°C
Dew Point: 57°F , 14°C
Humidity: 78%
Barometer: 29.95 inHg , 1014.2 hPa
Clouds: Clear
Visibility: 10 miles , 16 km
2018/08/16 03:47 KPAO 160347Z 30009KT 10SM SKC 18/14 A2995 RMK LAST
 
KSQL - San Carlos Airpo, California, USA
Distance from station: NW 21mi, 34km
Updated: Thu, 16-Aug-2018 5:35am PDT
Few Clouds
Few Clouds
 Wind from W
Wind: W 5 mph , 7 km/h
Temperature: 59°F , 15°C
Dew Point: 55°F , 13°C
Humidity: 88%
Barometer: 30.00 inHg , 1015.9 hPa
Clouds: Few Clouds
Visibility: 10 miles , 16 km
Cloud details: Few Clouds 2500 ft
2018/08/16 12:35 KSQL 161235Z AUTO 26004KT 10SM FEW025 15/13 A3000 RMK AO2
KE16 - San Martin, California, USA
Distance from station: ESE 27mi, 43km
Updated: Thu, 16-Aug-2018 5:15am PDT
Mostly Cloudy
Mostly Cloudy
 Wind from NW
Wind: NW 7 mph , 11 km/h
Temperature: 59°F , 15°C
Dew Point: 55°F , 13°C
Humidity: 88%
Barometer: 30.00 inHg , 1015.9 hPa
Clouds: Mostly Cloudy
Visibility: 10 miles , 16 km
Cloud details: Mostly Cloudy 1200 ft
2018/08/16 12:15 KE16 161215Z AUTO 31006KT 10SM BKN012 15/13 A3000 RMK AO2
 
KWVI - Watsonville, California, USA
Distance from station: SSE 27mi, 44km
Updated: Thu, 16-Aug-2018 4:53am PDT
Clear
Clear
 Wind from calm
Wind: Calm
Temperature: 54°F , 12°C
Dew Point: 54°F , 12°C
Humidity: 100%
Barometer: 29.98 inHg , 1015.2 hPa
Clouds: Clear
Visibility: 9 miles , 14 km
2018/08/16 11:53 KWVI 161153Z AUTO 00000KT 9SM CLR 12/12 A2998 RMK AO2 SLP152 T01220117 10156 20117 51002 $
KHWD - Hayward, California, USA
Distance from station: N 28mi, 44km
Updated: Thu, 16-Aug-2018 4:54am PDT
Overcast
Overcast
 Wind from WSW
Wind: WSW 7 mph , 11 km/h
Temperature: 63°F , 17°C
Dew Point: 55°F , 13°C
Humidity: 77%
Barometer: 29.99 inHg , 1015.6 hPa
Clouds: Overcast
Visibility: 10 miles , 16 km
Cloud details: Overcast 1300 ft
2018/08/16 11:54 KHWD 161154Z 25006KT 10SM OVC013 17/13 A2999 RMK AO2 SLP164 T01720133 10178 20167 53002
 
KSFO - San Francisco, California, USA
Distance from station: NW 30mi, 49km
Updated: Thu, 16-Aug-2018 4:56am PDT
Partly Cloudy
Partly Cloudy
 Wind from W
Wind: W 9 mph , 15 km/h
Temperature: 57°F , 14°C
Dew Point: 54°F , 12°C
Humidity: 88%
Barometer: 29.99 inHg , 1015.6 hPa
Clouds: Partly Cloudy
Visibility: 10 miles , 16 km
Cloud details: Few Clouds 600 ft
Partly Cloudy 1000 ft
2018/08/16 11:56 KSFO 161156Z 26008KT 10SM FEW006 SCT010 14/12 A2999 RMK AO2 SLP155 T01440122 10161 20144 53003
KHAF - Half Moon Bay, California, USA
Distance from station: WNW 31mi, 50km
Updated: Thu, 16-Aug-2018 5:35am PDT
Overcast
Overcast
 Wind from N
Wind: N 3 mph , 6 km/h
Temperature: 59°F , 15°C
Dew Point: 57°F , 14°C
Humidity: 94%
Barometer: 30.01 inHg , 1016.3 hPa
Clouds: Overcast
Visibility: 8 miles , 13 km
Cloud details: Overcast 1800 ft
2018/08/16 12:35 KHAF 161235Z AUTO 35003KT 8SM OVC018 15/14 A3001 RMK AO2
 
KOAK - Oakland, California, USA
Distance from station: NNW 31mi, 50km
Updated: Thu, 16-Aug-2018 4:53am PDT
Mostly Cloudy
Mostly Cloudy
 Wind from W
Wind: W 8 mph , 13 km/h
Temperature: 61°F , 16°C
Dew Point: 55°F , 13°C
Humidity: 83%
Barometer: 29.99 inHg , 1015.6 hPa
Clouds: Mostly Cloudy
Visibility: 10 miles , 16 km
Cloud details: Mostly Cloudy 1100 ft
2018/08/16 11:53 KOAK 161153Z 26007KT 10SM BKN011 16/13 A2999 RMK AO2 SLP154 T01560133 10161 20150 53002
KLVK - Livermore, California, USA
Distance from station: NNE 31mi, 51km
Updated: Thu, 16-Aug-2018 5:38am PDT
Mist, Mostly cloudy
Mist, Mostly cloudy
 Wind from WSW
Wind: WSW 3 mph , 6 km/h
Temperature: 59°F , 15°C
Dew Point: 55°F , 13°C
Humidity: 88%
Barometer: 29.99 inHg , 1015.6 hPa
Summary: Mist
Clouds: Mostly Cloudy
Visibility: 6 miles , 10 km
Cloud details: Mostly Cloudy 1200 ft
2018/08/16 12:38 KLVK 161238Z AUTO 25003KT 6SM BR BKN012 15/13 A2999 RMK AO2 T01500128
 
KCVH - Hollister Muni, California, USA
Distance from station: SE 42mi, 68km
Updated: Thu, 16-Aug-2018 5:35am PDT
Clear
Clear
 Wind from SW
Wind: SW 6 mph , 9 km/h
Temperature: 59°F , 15°C
Dew Point: 55°F , 13°C
Humidity: 88%
Barometer: 29.99 inHg , 1015.6 hPa
Clouds: Clear
Visibility: 9 miles , 14 km
2018/08/16 12:35 KCVH 161235Z AUTO 23005KT 9SM CLR 15/13 A2999 RMK A01
KSNS - Salinas, California, USA
Distance from station: SSE 48mi, 77km
Updated: Thu, 16-Aug-2018 4:53am PDT
Mist, Clear
Mist, Clear
 Wind from NNW
Wind: NNW 3 mph , 6 km/h
Temperature: 59°F , 15°C
Dew Point: 55°F , 13°C
Humidity: 88%
Barometer: 29.98 inHg , 1015.2 hPa
Summary: Mist
Clouds: Clear
Visibility: 6 miles , 10 km
2018/08/16 11:53 KSNS 161153Z AUTO 33003KT 6SM BR CLR 15/13 A2998 RMK AO2 SLP159 T01500133 10167 20150 53002
 
KMRY - Monterey, California, USA
Distance from station: SSE 49mi, 78km
Updated: Thu, 16-Aug-2018 4:54am PDT
Clear
Clear
 Wind from calm
Wind: Calm
Temperature: 59°F , 15°C
Dew Point: 55°F , 13°C
Humidity: 88%
Barometer: 29.98 inHg , 1015.2 hPa
Clouds: Clear
Visibility: 8 miles , 13 km
2018/08/16 11:54 KMRY 161154Z AUTO 00000KT 8SM CLR 15/13 A2998 RMK AO2 SLP164 T01500128 10161 20144 57001
KCCR - Concord, California, USA
Distance from station: N 50mi, 81km
Updated: Thu, 16-Aug-2018 4:53am PDT
Clear
Clear
 Wind from SSW
Wind: SSW 13 mph , 20 km/h
Temperature: 63°F , 17°C
Dew Point: 55°F , 13°C
Humidity: 77%
Barometer: 29.97 inHg , 1014.9 hPa
Clouds: Clear
Visibility: 9 miles , 14 km
2018/08/16 11:53 KCCR 161153Z AUTO 21011KT 9SM CLR 17/13 A2997 RMK AO2 SLP135 T01670128 10178 20167 51005
deformed-offering